Time;durP1;ratioP1;P1;durP2;ratioP2;P2;SDS_P1;SDS_P2;PMS_P1;PMS_P2;Temp;Humidity;BMP_temperature;BMP_pressure;BME280_temperature;BME280_humidity;BME280_pressure;Samples;Min_cycle;Max_cycle;Signal;HPM_P1;HPM_P2
2021/04/20 02:21:18;;;;;;;71.33;55.30;;;4.80;99.90;;;;;;5397144;23;20495;-72
2021/04/20 02:23:45;;;;;;;75.27;59.20;;;4.80;99.90;;;;;;5019953;28;20938;-71
2021/04/20 02:26:14;;;;;;;71.43;54.93;;;4.80;99.90;;;;;;5033949;28;20812;-72
2021/04/20 02:28:40;;;;;;;71.07;58.73;;;4.80;99.90;;;;;;5033832;28;20445;-71
2021/04/20 02:31:08;;;;;;;77.83;55.30;;;4.90;99.90;;;;;;5033434;28;20499;-71
2021/04/20 02:33:35;;;;;;;75.83;56.70;;;4.80;99.90;;;;;;5033784;28;20452;-72
2021/04/20 02:36:03;;;;;;;74.10;56.90;;;4.80;99.90;;;;;;5033964;28;20456;-72
2021/04/20 02:38:30;;;;;;;77.47;58.23;;;4.90;99.90;;;;;;5033654;28;20488;-72
2021/04/20 02:40:58;;;;;;;69.30;56.47;;;4.90;99.90;;;;;;5033641;28;20448;-73
2021/04/20 02:43:25;;;;;;;76.13;58.10;;;4.90;99.90;;;;;;5033755;28;20832;-73
2021/04/20 02:45:53;;;;;;;70.70;54.93;;;4.90;99.90;;;;;;5033499;28;20920;-73
2021/04/20 02:48:19;;;;;;;73.97;54.07;;;4.80;99.90;;;;;;5033785;28;20500;-73
2021/04/20 02:50:46;;;;;;;72.20;54.70;;;4.80;99.90;;;;;;5033745;28;20457;-73
2021/04/20 02:53:15;;;;;;;79.73;58.77;;;4.80;99.90;;;;;;5033313;28;20823;-70
2021/04/20 02:55:43;;;;;;;71.50;54.27;;;4.80;99.90;;;;;;5033089;28;20989;-71
2021/04/20 02:58:16;;;;;;;77.17;57.10;;;4.80;99.90;;;;;;5033185;28;21135;-71
2021/04/20 03:00:44;;;;;;;65.30;54.13;;;4.90;99.90;;;;;;5033110;28;20459;-71
2021/04/20 03:03:12;;;;;;;86.23;55.17;;;4.90;99.90;;;;;;5033015;28;20479;-71
2021/04/20 03:05:39;;;;;;;71.33;56.53;;;4.90;99.90;;;;;;5033135;28;20453;-71
2021/04/20 03:08:06;;;;;;;72.40;59.63;;;4.90;99.90;;;;;;5033232;28;20449;-71
2021/04/20 03:10:33;;;;;;;75.23;55.83;;;4.90;99.90;;;;;;5033279;28;20455;-71
2021/04/20 03:13:00;;;;;;;76.77;57.67;;;4.80;99.90;;;;;;5032973;28;20479;-71
2021/04/20 03:15:27;;;;;;;69.53;57.10;;;4.90;99.90;;;;;;5032611;28;20720;-72
2021/04/20 03:17:53;;;;;;;72.70;57.03;;;4.80;99.90;;;;;;5032797;28;20464;-72
2021/04/20 03:20:20;;;;;;;83.67;59.43;;;4.80;99.90;;;;;;5032893;28;20476;-72
2021/04/20 03:22:49;;;;;;;70.57;55.23;;;4.90;99.90;;;;;;5032533;28;20484;-73
2021/04/20 03:25:20;;;;;;;70.73;55.47;;;4.80;99.90;;;;;;5032984;28;20453;-76
2021/04/20 03:27:49;;;;;;;73.77;55.83;;;4.80;99.90;;;;;;5033071;28;20792;-72
2021/04/20 03:30:18;;;;;;;79.37;55.87;;;4.90;99.90;;;;;;5032544;28;20452;-72
2021/04/20 03:32:48;;;;;;;85.10;62.23;;;4.90;99.90;;;;;;5031574;28;20437;-72
2021/04/20 03:35:19;;;;;;;73.70;58.63;;;4.80;99.90;;;;;;5028576;28;20472;-73
2021/04/20 03:37:52;;;;;;;74.67;55.50;;;4.80;99.90;;;;;;5032158;28;20503;-72
2021/04/20 03:40:20;;;;;;;75.07;54.63;;;4.80;99.90;;;;;;5030367;28;20449;-71
2021/04/20 03:42:52;;;;;;;79.53;59.00;;;4.80;99.90;;;;;;5032149;28;20445;-73
2021/04/20 03:45:22;;;;;;;67.93;54.97;;;4.80;99.90;;;;;;5030544;28;20451;-72
2021/04/20 03:47:53;;;;;;;67.87;54.50;;;4.90;99.90;;;;;;5032051;28;20438;-73
2021/04/20 03:50:24;;;;;;;82.50;60.73;;;4.90;99.90;;;;;;5031933;28;20488;-73
2021/04/20 03:52:55;;;;;;;72.57;57.13;;;4.90;99.90;;;;;;5032089;28;20922;-73
2021/04/20 03:55:24;;;;;;;71.87;56.87;;;4.90;99.90;;;;;;5031962;28;20445;-71
2021/04/20 03:57:51;;;;;;;75.67;54.83;;;4.90;99.90;;;;;;5031574;28;20496;-74
2021/04/20 04:00:20;;;;;;;63.10;51.57;;;4.90;99.90;;;;;;5032029;28;20447;-71
2021/04/20 04:02:48;;;;;;;65.37;54.20;;;4.90;99.90;;;;;;5031962;28;20504;-71
2021/04/20 04:05:17;;;;;;;59.10;48.33;;;4.90;99.90;;;;;;5032079;28;20963;-73
2021/04/20 04:07:46;;;;;;;63.70;52.13;;;4.90;99.90;;;;;;5032230;28;20459;-73
2021/04/20 04:10:14;;;;;;;65.67;51.87;;;4.90;99.90;;;;;;5031829;28;21023;-71
2021/04/20 04:12:41;;;;;;;68.53;54.23;;;4.90;99.90;;;;;;5031880;28;20476;-74
2021/04/20 04:15:11;;;;;;;59.37;50.63;;;4.80;99.90;;;;;;5031943;28;20453;-74
2021/04/20 04:17:41;;;;;;;60.23;53.33;;;4.80;99.90;;;;;;5031962;28;20457;-72
2021/04/20 04:20:08;;;;;;;56.20;48.47;;;4.80;99.90;;;;;;5031580;28;20493;-74
2021/04/20 04:22:38;;;;;;;55.10;49.50;;;4.80;99.90;;;;;;5031569;28;20509;-74
2021/04/20 04:25:10;;;;;;;76.10;53.97;;;4.80;99.90;;;;;;5031527;28;20450;-73
2021/04/20 04:27:42;;;;;;;55.87;48.50;;;4.80;99.90;;;;;;5031752;28;20453;-73
2021/04/20 04:30:11;;;;;;;59.50;51.93;;;4.70;99.90;;;;;;5031709;28;20495;-71
2021/04/20 04:32:41;;;;;;;60.10;52.67;;;4.70;99.90;;;;;;5031727;28;20467;-74
2021/04/20 04:35:09;;;;;;;60.10;50.60;;;4.70;99.90;;;;;;5031351;28;20475;-74
2021/04/20 04:37:37;;;;;;;65.83;53.47;;;4.70;99.90;;;;;;5031888;28;20953;-74
2021/04/20 04:40:05;;;;;;;61.13;51.20;;;4.70;99.90;;;;;;5031546;28;20890;-71
2021/04/20 04:42:31;;;;;;;66.00;52.10;;;4.80;99.90;;;;;;5031893;28;20580;-73
2021/04/20 04:44:58;;;;;;;59.73;50.60;;;4.90;99.90;;;;;;5031167;28;20449;-73
2021/04/20 04:47:25;;;;;;;71.20;53.20;;;4.90;99.90;;;;;;5031093;28;20449;-72
2021/04/20 04:49:52;;;;;;;58.17;47.57;;;4.90;99.90;;;;;;5031349;28;20552;-71
2021/04/20 04:52:20;;;;;;;55.83;48.33;;;4.90;99.90;;;;;;5031509;28;20452;-71
2021/04/20 04:54:47;;;;;;;53.90;47.20;;;4.90;99.90;;;;;;5031655;28;20453;-72
2021/04/20 04:57:14;;;;;;;56.17;48.07;;;4.90;99.90;;;;;;5031346;28;20457;-72
2021/04/20 04:59:42;;;;;;;59.90;49.43;;;5.00;99.90;;;;;;5031397;28;20677;-73
2021/04/20 05:02:11;;;;;;;60.90;49.97;;;4.90;99.90;;;;;;5031053;28;20453;-72
2021/04/20 05:04:37;;;;;;;64.57;51.30;;;5.00;99.90;;;;;;5030817;28;20453;-71
2021/04/20 05:07:05;;;;;;;60.40;49.90;;;5.00;99.90;;;;;;5031234;28;20456;-70
2021/04/20 05:09:31;;;;;;;56.43;50.53;;;5.00;99.90;;;;;;5031386;28;20455;-70
2021/04/20 05:11:58;;;;;;;62.57;51.30;;;5.00;99.90;;;;;;5030893;28;20453;-70
2021/04/20 05:14:24;;;;;;;61.80;51.03;;;5.10;99.90;;;;;;5030959;28;20732;-70
2021/04/20 05:16:52;;;;;;;57.43;51.00;;;5.10;99.90;;;;;;5030864;28;20456;-71
2021/04/20 05:19:24;;;;;;;78.87;53.90;;;5.20;99.90;;;;;;5030799;28;20998;-70
2021/04/20 05:21:51;;;;;;;69.53;53.73;;;5.30;99.90;;;;;;5031062;28;20799;-70
2021/04/20 05:24:20;;;;;;;72.50;53.70;;;5.30;99.90;;;;;;5031002;28;20789;-68
2021/04/20 05:26:46;;;;;;;69.70;53.33;;;5.30;99.90;;;;;;5030877;28;20456;-67
2021/04/20 05:29:13;;;;;;;70.13;53.87;;;5.30;99.90;;;;;;5030777;28;20694;-68
2021/04/20 05:31:39;;;;;;;65.67;54.13;;;5.30;99.90;;;;;;5030698;28;20449;-70
2021/04/20 05:34:06;;;;;;;60.90;51.03;;;5.50;99.90;;;;;;5030670;28;20464;-69
2021/04/20 05:36:34;;;;;;;57.93;51.47;;;5.50;99.90;;;;;;5030764;28;20511;-69
2021/04/20 05:39:04;;;;;;;67.07;56.37;;;5.60;99.90;;;;;;5030306;28;20484;-68
2021/04/20 05:41:33;;;;;;;57.30;51.17;;;5.60;99.90;;;;;;5030702;28;20452;-71
2021/04/20 05:44:02;;;;;;;60.53;49.53;;;5.70;99.90;;;;;;5030626;28;20452;-70
2021/04/20 05:46:29;;;;;;;61.17;51.57;;;5.70;99.90;;;;;;5028781;28;20495;-72
2021/04/20 05:48:56;;;;;;;70.27;54.13;;;5.70;99.90;;;;;;5030461;28;20467;-72
2021/04/20 05:51:24;;;;;;;59.27;50.53;;;5.80;99.90;;;;;;5028853;28;20464;-73
2021/04/20 05:53:52;;;;;;;59.83;47.27;;;5.90;99.90;;;;;;5029261;28;20446;-73
2021/04/20 05:56:20;;;;;;;59.43;50.90;;;5.90;99.90;;;;;;5030372;28;20454;-69
2021/04/20 05:58:51;;;;;;;55.13;48.07;;;6.10;99.90;;;;;;5031515;28;20481;-73
2021/04/20 06:01:17;;;;;;;62.27;50.30;;;6.10;99.90;;;;;;5032303;28;20456;-72
2021/04/20 06:03:44;;;;;;;55.10;49.07;;;6.00;99.90;;;;;;5034202;28;20529;-72
2021/04/20 06:06:15;;;;;;;55.57;49.63;;;6.20;99.90;;;;;;5034432;28;20453;-72
2021/04/20 06:08:42;;;;;;;62.73;54.27;;;6.40;99.90;;;;;;5034390;28;20455;-73
2021/04/20 06:11:10;;;;;;;56.10;50.07;;;6.70;99.90;;;;;;5034285;28;20852;-72
2021/04/20 06:13:37;;;;;;;53.93;48.30;;;6.90;99.90;;;;;;5034308;28;20455;-73
2021/04/20 06:16:06;;;;;;;57.83;51.43;;;7.20;99.90;;;;;;5034471;28;20463;-73
2021/04/20 06:18:32;;;;;;;55.33;48.87;;;7.60;99.90;;;;;;5034154;28;20526;-73
2021/04/20 06:21:01;;;;;;;47.40;42.57;;;7.90;99.90;;;;;;5033880;28;20841;-75
2021/04/20 06:23:28;;;;;;;49.60;44.40;;;8.20;99.90;;;;;;5034013;28;20484;-74
2021/04/20 06:25:58;;;;;;;42.30;37.00;;;8.50;99.90;;;;;;5034053;28;20463;-75
2021/04/20 06:28:25;;;;;;;38.97;35.63;;;8.70;99.90;;;;;;5033981;28;20459;-73
2021/04/20 06:30:51;;;;;;;38.00;34.60;;;9.00;99.90;;;;;;5033975;28;20507;-72
2021/04/20 06:33:19;;;;;;;34.13;31.17;;;9.40;99.90;;;;;;5033830;28;20951;-74
2021/04/20 06:35:45;;;;;;;35.33;32.00;;;9.90;99.90;;;;;;5033771;28;20444;-72
2021/04/20 06:38:13;;;;;;;37.90;32.57;;;9.90;99.90;;;;;;5033557;28;20454;-72
2021/04/20 06:40:42;;;;;;;36.20;32.57;;;10.00;99.90;;;;;;5033524;28;20700;-74
2021/04/20 06:43:12;;;;;;;39.70;35.47;;;9.90;99.90;;;;;;5033645;28;20456;-74
2021/04/20 06:45:45;;;;;;;34.33;31.10;;;10.00;99.90;;;;;;5033661;28;20464;-74
2021/04/20 06:48:23;;;;;;;34.03;30.87;;;9.90;99.90;;;;;;5033588;28;20612;-75
2021/04/20 06:50:54;;;;;;;34.50;31.10;;;9.90;99.90;;;;;;5033486;28;20468;-75
2021/04/20 06:53:25;;;;;;;37.43;32.90;;;9.70;99.90;;;;;;5033944;28;20457;-72
2021/04/20 06:56:03;;;;;;;36.87;33.37;;;9.50;99.90;;;;;;5033730;28;20510;-73
2021/04/20 06:58:36;;;;;;;37.73;34.13;;;9.10;99.90;;;;;;5033865;28;20484;-74
2021/04/20 07:01:06;;;;;;;38.27;34.47;;;9.00;99.90;;;;;;5033964;28;20511;-73
2021/04/20 07:03:52;;;;;;;34.80;31.70;;;8.90;99.90;;;;;;5033652;28;20453;-73
2021/04/20 07:06:23;;;;;;;37.50;34.20;;;8.90;99.90;;;;;;5033488;28;20460;-73
2021/04/20 07:08:57;;;;;;;33.83;30.93;;;9.00;99.90;;;;;;5033465;28;20445;-74
2021/04/20 07:11:27;;;;;;;33.37;30.37;;;9.30;99.90;;;;;;5031978;28;20499;-74
2021/04/20 07:13:56;;;;;;;34.70;31.40;;;9.60;99.90;;;;;;5033399;28;20460;-70
2021/04/20 07:16:35;;;;;;;37.03;33.50;;;9.80;99.90;;;;;;5033238;28;20469;-73
2021/04/20 07:19:25;;;;;;;33.23;30.10;;;9.70;99.90;;;;;;5033215;28;20550;-73
2021/04/20 07:22:17;;;;;;;33.93;30.80;;;10.20;99.90;;;;;;5032936;28;20459;-72
2021/04/20 07:25:07;;;;;;;33.90;30.90;;;10.70;99.90;;;;;;5033067;28;20445;-72
2021/04/20 07:27:47;;;;;;;34.87;31.37;;;11.30;99.90;;;;;;5033043;28;20460;-72
2021/04/20 07:30:20;;;;;;;33.00;29.80;;;11.80;99.90;;;;;;5033058;28;20971;-70
2021/04/20 07:33:02;;;;;;;32.90;30.13;;;12.20;99.90;;;;;;5033158;28;20453;-72
2021/04/20 07:35:36;;;;;;;33.90;30.90;;;12.90;99.90;;;;;;5032831;28;20444;-72
2021/04/20 07:38:10;;;;;;;31.47;28.27;;;13.50;99.90;;;;;;5032940;28;20812;-71
2021/04/20 07:40:41;;;;;;;32.23;29.37;;;13.60;99.90;;;;;;5032693;28;20445;-72
2021/04/20 07:43:26;;;;;;;31.20;28.70;;;14.00;99.90;;;;;;5032510;28;20452;-71
2021/04/20 07:46:00;;;;;;;32.80;29.90;;;14.40;99.90;;;;;;5032428;28;20475;-72
2021/04/20 07:48:37;;;;;;;32.83;30.10;;;14.30;99.90;;;;;;5032590;28;20449;-72
2021/04/20 07:51:11;;;;;;;34.77;31.37;;;14.80;99.90;;;;;;5032657;28;20459;-72
2021/04/20 07:53:49;;;;;;;31.67;29.07;;;14.80;99.90;;;;;;5032372;28;20453;-72
2021/04/20 07:56:22;;;;;;;32.67;29.87;;;14.90;99.90;;;;;;5032467;28;20864;-71
2021/04/20 07:58:52;;;;;;;32.80;30.07;;;14.80;99.90;;;;;;5032508;28;20477;-71
2021/04/20 08:01:36;;;;;;;34.07;31.07;;;15.00;99.90;;;;;;5032158;28;20441;-71
2021/04/20 08:04:32;;;;;;;36.13;33.13;;;15.50;99.90;;;;;;5032505;28;20488;-72
2021/04/20 08:07:07;;;;;;;34.40;31.30;;;16.00;99.90;;;;;;5011807;28;20465;-71
2021/04/20 08:09:37;;;;;;;33.33;30.07;;;16.80;98.80;;;;;;5032207;28;20526;-72
2021/04/20 08:12:11;;;;;;;34.43;31.67;;;17.20;97.00;;;;;;5032424;28;20467;-71
2021/04/20 08:14:45;;;;;;;34.13;31.00;;;17.00;97.60;;;;;;5031897;28;20460;-72
2021/04/20 08:17:16;;;;;;;34.33;31.50;;;16.90;97.50;;;;;;5031883;28;20484;-72
2021/04/20 08:19:46;;;;;;;38.00;34.47;;;17.10;97.10;;;;;;5031726;28;20492;-72
2021/04/20 08:22:17;;;;;;;36.17;32.87;;;17.80;96.60;;;;;;5030988;28;20483;-72
2021/04/20 08:24:52;;;;;;;36.33;33.00;;;18.20;95.10;;;;;;5031722;28;20457;-72
2021/04/20 08:27:26;;;;;;;36.27;33.03;;;18.40;94.20;;;;;;5031873;28;20452;-73
2021/04/20 08:30:00;;;;;;;33.97;31.17;;;18.70;94.00;;;;;;5031519;28;20496;-72
2021/04/20 08:32:29;;;;;;;35.10;32.20;;;19.20;93.00;;;;;;5031500;28;20452;-72
2021/04/20 08:35:01;;;;;;;36.53;33.27;;;19.40;93.60;;;;;;5031401;28;20464;-73
2021/04/20 08:37:39;;;;;;;34.43;31.47;;;20.00;92.20;;;;;;5031420;28;20456;-73
2021/04/20 08:40:13;;;;;;;36.50;33.30;;;20.50;90.40;;;;;;5031420;28;21002;-72
2021/04/20 08:42:47;;;;;;;35.73;32.77;;;20.40;90.20;;;;;;5031365;28;20448;-73
2021/04/20 08:45:21;;;;;;;35.53;32.27;;;20.70;90.60;;;;;;5031020;28;20946;-72
2021/04/20 08:48:01;;;;;;;35.47;32.27;;;21.40;87.50;;;;;;5031496;28;20449;-72
2021/04/20 08:50:30;;;;;;;35.90;33.10;;;22.00;84.70;;;;;;5031055;28;20484;-73
2021/04/20 08:53:17;;;;;;;34.27;31.50;;;22.30;83.00;;;;;;5031223;28;20452;-71
2021/04/20 08:55:52;;;;;;;35.40;32.50;;;22.80;80.40;;;;;;5031252;28;20840;-72
2021/04/20 08:58:55;;;;;;;37.80;34.80;;;23.50;76.30;;;;;;5031248;28;20456;-72
2021/04/20 09:01:30;;;;;;;31.07;28.53;;;22.30;78.80;;;;;;5030891;28;20448;-73
2021/04/20 09:04:07;;;;;;;33.93;31.43;;;22.30;79.70;;;;;;5030743;28;20447;-73
2021/04/20 09:06:39;;;;;;;35.70;33.10;;;23.40;76.40;;;;;;5031196;28;20444;-73
2021/04/20 09:09:07;;;;;;;35.27;32.30;;;23.80;73.50;;;;;;5030574;28;21033;-73
2021/04/20 09:11:36;;;;;;;32.53;29.87;;;23.70;73.40;;;;;;5031009;28;20453;-73
2021/04/20 09:14:07;;;;;;;35.67;33.00;;;24.30;72.10;;;;;;5030824;28;20448;-73
2021/04/20 09:16:42;;;;;;;34.07;31.57;;;24.10;70.40;;;;;;5030740;28;20560;-73
2021/04/20 09:19:12;;;;;;;34.80;32.27;;;23.70;72.20;;;;;;5030548;28;20461;-73
2021/04/20 09:21:49;;;;;;;34.03;31.00;;;23.60;71.70;;;;;;5030210;28;20539;-73
2021/04/20 09:24:19;;;;;;;34.30;31.63;;;24.10;70.50;;;;;;5030464;28;20448;-73
2021/04/20 09:26:50;;;;;;;33.80;31.20;;;24.50;69.40;;;;;;5030303;28;20441;-74
2021/04/20 09:29:22;;;;;;;31.13;28.93;;;24.50;69.60;;;;;;5030208;28;21075;-73
2021/04/20 09:31:55;;;;;;;32.43;29.83;;;25.00;68.10;;;;;;5030362;28;20453;-73
2021/04/20 09:34:25;;;;;;;32.43;29.87;;;25.60;66.10;;;;;;5029243;28;20457;-74
2021/04/20 09:36:52;;;;;;;32.03;29.60;;;24.70;66.30;;;;;;5030381;28;20810;-73
2021/04/20 09:39:20;;;;;;;30.93;28.63;;;25.30;64.60;;;;;;5030732;28;20448;-73
2021/04/20 09:41:47;;;;;;;32.80;30.50;;;25.30;63.20;;;;;;5030511;28;20536;-73
2021/04/20 09:44:32;;;;;;;31.53;29.23;;;25.70;61.90;;;;;;5030292;28;20453;-73
2021/04/20 09:47:21;;;;;;;33.37;30.87;;;25.20;63.20;;;;;;5030418;28;20514;-74
2021/04/20 09:49:57;;;;;;;31.40;29.07;;;25.60;63.10;;;;;;5030587;28;20496;-73
2021/04/20 09:52:26;;;;;;;30.27;27.97;;;26.10;58.40;;;;;;5030223;28;20448;-73
2021/04/20 09:54:57;;;;;;;30.87;28.67;;;26.00;57.30;;;;;;5030146;28;20453;-73
2021/04/20 09:57:28;;;;;;;31.07;28.90;;;26.50;57.10;;;;;;5030211;28;20460;-73
2021/04/20 09:59:58;;;;;;;29.77;27.73;;;26.80;57.10;;;;;;5030353;28;20504;-73
2021/04/20 10:02:42;;;;;;;32.80;30.20;;;25.80;59.40;;;;;;5030398;28;20449;-72
2021/04/20 10:05:16;;;;;;;32.60;30.17;;;24.90;61.10;;;;;;5028558;28;20464;-72
2021/04/20 10:08:04;;;;;;;32.70;30.30;;;24.60;63.10;;;;;;5030214;28;20448;-72
2021/04/20 10:10:43;;;;;;;34.40;31.60;;;24.30;63.20;;;;;;5029813;28;20484;-72
2021/04/20 10:13:47;;;;;;;28.67;26.60;;;24.30;62.90;;;;;;5029551;28;20511;-72
2021/04/20 10:16:18;;;;;;;31.60;29.20;;;24.20;62.80;;;;;;5029935;28;20460;-73
2021/04/20 10:18:57;;;;;;;33.00;30.30;;;24.60;62.10;;;;;;5029794;28;20523;-73
2021/04/20 10:21:29;;;;;;;30.20;28.00;;;25.60;61.30;;;;;;5029909;28;20453;-73
2021/04/20 10:24:08;;;;;;;30.43;28.27;;;26.00;59.60;;;;;;5029602;28;20483;-73
2021/04/20 10:26:43;;;;;;;31.20;28.90;;;26.30;57.30;;;;;;5030102;28;20551;-72
2021/04/20 10:29:15;;;;;;;30.63;28.50;;;25.00;59.00;;;;;;5029785;28;20475;-72
2021/04/20 10:31:52;;;;;;;29.40;27.50;;;23.70;60.30;;;;;;5029847;28;20461;-72
2021/04/20 10:34:19;;;;;;;30.57;28.37;;;23.00;61.60;;;;;;5030126;28;20457;-72
2021/04/20 10:36:51;;;;;;;30.50;28.50;;;22.40;63.20;;;;;;5029981;28;20808;-72
2021/04/20 10:39:20;;;;;;;29.93;27.63;;;21.60;64.40;;;;;;5030176;28;20481;-72
2021/04/20 10:41:48;;;;;;;30.30;28.00;;;21.20;67.90;;;;;;5029851;28;20453;-71
2021/04/20 10:44:16;;;;;;;28.80;26.63;;;20.90;67.70;;;;;;5030430;28;20460;-71
2021/04/20 10:46:46;;;;;;;28.90;26.90;;;20.80;69.60;;;;;;5033394;28;20459;-72
2021/04/20 10:49:16;;;;;;;27.30;25.07;;;22.60;67.00;;;;;;5033421;28;21068;-72
2021/04/20 10:51:43;;;;;;;26.03;24.13;;;23.30;64.00;;;;;;5033516;28;20452;-72
2021/04/20 10:54:11;;;;;;;25.40;23.70;;;22.60;62.80;;;;;;5033508;28;20946;-72
2021/04/20 10:56:38;;;;;;;25.70;24.00;;;23.50;60.70;;;;;;5033219;28;20449;-71
2021/04/20 10:59:09;;;;;;;22.30;20.83;;;24.40;58.90;;;;;;5033429;28;20806;-71
2021/04/20 11:01:36;;;;;;;21.70;20.37;;;25.20;55.40;;;;;;5033490;28;20507;-71
2021/04/20 11:04:07;;;;;;;20.60;19.33;;;25.90;52.70;;;;;;5033456;28;20515;-72
2021/04/20 11:07:12;;;;;;;24.67;23.17;;;25.30;53.10;;;;;;5033179;28;20456;-72
2021/04/20 11:09:39;;;;;;;25.53;23.73;;;25.00;55.00;;;;;;5033130;28;20485;-72
2021/04/20 11:12:16;;;;;;;26.20;24.37;;;25.90;53.20;;;;;;5033071;28;20964;-71
2021/04/20 11:14:44;;;;;;;24.30;22.70;;;25.90;52.90;;;;;;5033004;28;20551;-72
2021/04/20 11:17:27;;;;;;;24.83;23.03;;;25.80;52.50;;;;;;5033027;28;20449;-72
2021/04/20 11:20:02;;;;;;;23.07;21.47;;;26.00;51.80;;;;;;5032816;28;20469;-72
2021/04/20 11:22:34;;;;;;;22.37;21.00;;;25.10;53.20;;;;;;5032923;28;20526;-72
2021/04/20 11:25:04;;;;;;;23.83;22.37;;;26.40;51.20;;;;;;5033195;28;20457;-72
2021/04/20 11:27:35;;;;;;;22.17;20.97;;;27.20;49.40;;;;;;5033009;28;20449;-72
2021/04/20 11:30:08;;;;;;;24.93;23.30;;;27.80;47.90;;;;;;5033159;28;20484;-72
2021/04/20 11:32:37;;;;;;;22.30;21.00;;;26.70;48.60;;;;;;5032958;28;20519;-73
2021/04/20 11:35:08;;;;;;;23.87;22.43;;;27.20;48.40;;;;;;5032558;28;20527;-72
2021/04/20 11:37:36;;;;;;;23.60;22.10;;;27.90;47.70;;;;;;5032910;28;20461;-73
2021/04/20 11:40:07;;;;;;;24.43;22.93;;;28.80;47.00;;;;;;5032912;28;20485;-73
2021/04/20 11:42:38;;;;;;;26.50;24.70;;;29.00;46.70;;;;;;5032903;28;20468;-71
2021/04/20 11:45:13;;;;;;;24.27;22.77;;;28.50;46.30;;;;;;5031668;28;20468;-71
2021/04/20 11:47:54;;;;;;;24.77;23.27;;;27.50;48.60;;;;;;5032733;28;20448;-72
2021/04/20 11:50:21;;;;;;;25.10;23.50;;;27.40;48.40;;;;;;5032567;28;20551;-73
2021/04/20 11:52:55;;;;;;;23.27;21.87;;;28.20;46.70;;;;;;5032623;28;20448;-72
2021/04/20 11:55:31;;;;;;;23.10;21.70;;;28.50;45.00;;;;;;5032536;28;20978;-72
2021/04/20 11:58:03;;;;;;;22.20;20.90;;;28.60;44.60;;;;;;5032203;28;20452;-72
2021/04/20 12:00:31;;;;;;;24.57;23.07;;;28.30;44.10;;;;;;5032740;28;20459;-72
2021/04/20 12:03:06;;;;;;;23.90;22.07;;;27.10;46.20;;;;;;5032149;28;20449;-72
2021/04/20 12:05:33;;;;;;;21.43;20.23;;;26.70;45.80;;;;;;5032310;28;20941;-72
2021/04/20 12:08:01;;;;;;;23.50;21.90;;;27.10;45.20;;;;;;5032226;28;20476;-71
2021/04/20 12:10:28;;;;;;;22.30;20.90;;;27.80;44.60;;;;;;5032188;28;20484;-72
2021/04/20 12:12:55;;;;;;;22.47;21.17;;;28.30;42.80;;;;;;5032157;28;20453;-71
2021/04/20 12:15:22;;;;;;;23.10;21.60;;;28.10;43.40;;;;;;5032071;28;20453;-72
2021/04/20 12:17:50;;;;;;;26.73;25.03;;;27.10;43.80;;;;;;5032399;28;20549;-72
2021/04/20 12:20:20;;;;;;;23.13;21.43;;;25.30;46.10;;;;;;5012520;28;20466;-72
2021/04/20 12:22:52;;;;;;;22.77;21.27;;;24.40;47.50;;;;;;5012194;28;20513;-71
2021/04/20 12:25:19;;;;;;;24.53;23.13;;;23.60;49.60;;;;;;5012379;28;20465;-72
2021/04/20 12:27:49;;;;;;;23.17;21.57;;;24.60;49.60;;;;;;5012459;28;20446;-72
2021/04/20 12:30:18;;;;;;;21.83;20.53;;;25.90;48.30;;;;;;5012280;28;20930;-72
2021/04/20 12:32:44;;;;;;;24.50;22.87;;;27.00;45.40;;;;;;5011882;28;20545;-72
2021/04/20 12:35:12;;;;;;;23.03;21.50;;;26.90;45.70;;;;;;5011711;28;20450;-71
2021/04/20 12:37:39;;;;;;;23.13;21.80;;;26.80;44.80;;;;;;5011656;28;20450;-72
2021/04/20 12:40:08;;;;;;;22.27;20.87;;;26.80;45.10;;;;;;5009998;28;20936;-72
2021/04/20 12:42:38;;;;;;;22.87;21.47;;;27.10;44.20;;;;;;5012010;28;20454;-71
2021/04/20 12:45:11;;;;;;;20.60;19.50;;;27.60;43.50;;;;;;5011788;28;20962;-72
2021/04/20 12:47:39;;;;;;;19.73;18.73;;;28.10;43.30;;;;;;5011721;28;20499;-71
2021/04/20 12:50:08;;;;;;;22.03;20.73;;;28.30;42.60;;;;;;5011350;28;20493;-70
2021/04/20 12:52:39;;;;;;;21.13;20.03;;;27.40;42.20;;;;;;5016678;28;20452;-71
2021/04/20 12:55:09;;;;;;;23.03;21.63;;;27.40;41.70;;;;;;5031483;28;20468;-70
2021/04/20 12:57:39;;;;;;;21.50;20.20;;;27.10;41.30;;;;;;5031292;28;20456;-71
2021/04/20 13:00:11;;;;;;;20.43;19.33;;;25.60;44.30;;;;;;5031629;28;20931;-71
2021/04/20 13:02:39;;;;;;;19.03;17.83;;;25.70;44.00;;;;;;5031538;28;20460;-71
2021/04/20 13:05:07;;;;;;;19.30;18.30;;;26.20;42.80;;;;;;5031744;28;20449;-71
2021/04/20 13:07:35;;;;;;;20.40;19.20;;;26.80;41.80;;;;;;5031781;28;20530;-71
2021/04/20 13:10:05;;;;;;;19.90;18.70;;;25.70;42.10;;;;;;5029622;28;21169;-72
2021/04/20 13:12:32;;;;;;;18.10;17.20;;;25.20;43.40;;;;;;5031039;28;20441;-71
2021/04/20 13:15:01;;;;;;;20.20;19.00;;;25.60;43.50;;;;;;5030890;28;20544;-72
2021/04/20 13:17:31;;;;;;;18.60;17.60;;;25.70;42.60;;;;;;5030908;28;20456;-72
2021/04/20 13:20:01;;;;;;;18.90;17.80;;;26.00;42.20;;;;;;5030499;28;20998;-72
2021/04/20 13:22:28;;;;;;;17.03;16.20;;;25.80;41.80;;;;;;5030240;28;20480;-71
2021/04/20 13:25:00;;;;;;;18.70;17.70;;;26.00;41.90;;;;;;5030311;28;20456;-71
2021/04/20 13:27:29;;;;;;;19.23;18.17;;;26.80;40.60;;;;;;5030830;28;20917;-71
2021/04/20 13:30:00;;;;;;;18.40;17.40;;;27.00;40.20;;;;;;5030654;28;20480;-71
2021/04/20 13:32:27;;;;;;;17.67;16.67;;;26.20;39.90;;;;;;5031214;28;20914;-71
2021/04/20 13:34:56;;;;;;;17.50;16.60;;;25.40;40.20;;;;;;5030767;28;20441;-71
2021/04/20 13:37:27;;;;;;;17.00;16.10;;;25.20;41.70;;;;;;5030952;28;20468;-71
2021/04/20 13:39:56;;;;;;;18.80;17.70;;;25.30;41.40;;;;;;5031119;28;20453;-71
2021/04/20 13:42:27;;;;;;;17.90;16.90;;;24.80;41.60;;;;;;5031120;28;20457;-70
2021/04/20 13:44:56;;;;;;;19.70;18.60;;;24.00;43.70;;;;;;5031130;28;20459;-71
2021/04/20 13:47:23;;;;;;;17.53;16.53;;;24.20;43.80;;;;;;5031048;28;20456;-70
2021/04/20 13:49:51;;;;;;;18.77;17.47;;;24.20;43.80;;;;;;5030973;28;20523;-71
2021/04/20 13:52:19;;;;;;;18.47;17.37;;;24.20;43.80;;;;;;5030885;28;20453;-71
2021/04/20 13:54:52;;;;;;;18.33;17.23;;;24.00;43.90;;;;;;5030851;28;20453;-70
2021/04/20 13:57:24;;;;;;;19.87;18.67;;;23.20;46.80;;;;;;5031090;28;20857;-71
2021/04/20 13:59:56;;;;;;;20.17;18.80;;;22.00;48.50;;;;;;5030984;28;20471;-71
2021/04/20 14:02:23;;;;;;;19.43;18.23;;;21.00;50.60;;;;;;5030940;28;20449;-71
2021/04/20 14:04:52;;;;;;;19.20;17.97;;;20.60;52.40;;;;;;5030968;28;20866;-71
2021/04/20 14:07:24;;;;;;;20.03;18.83;;;21.00;53.00;;;;;;5030992;28;20492;-71
2021/04/20 14:09:55;;;;;;;21.40;19.90;;;21.20;53.70;;;;;;5030827;28;20496;-70
2021/04/20 14:12:25;;;;;;;21.83;20.33;;;21.30;54.20;;;;;;5030720;28;20499;-70
2021/04/20 14:14:57;;;;;;;20.93;19.60;;;21.00;54.40;;;;;;5029940;28;20456;-70
2021/04/20 14:17:31;;;;;;;20.70;19.30;;;20.40;55.20;;;;;;5030233;28;20523;-69
2021/04/20 14:20:00;;;;;;;21.33;19.73;;;19.70;57.00;;;;;;5032309;28;20941;-69
2021/04/20 14:22:27;;;;;;;21.90;20.50;;;19.40;57.60;;;;;;5034056;28;20484;-70
2021/04/20 14:24:58;;;;;;;22.43;20.70;;;19.00;58.80;;;;;;5034447;28;20449;-69
2021/04/20 14:27:27;;;;;;;22.63;20.83;;;18.40;62.90;;;;;;5034229;28;21176;-70
2021/04/20 14:29:56;;;;;;;23.27;21.57;;;18.00;64.10;;;;;;5034296;28;20883;-70
2021/04/20 14:32:22;;;;;;;21.43;19.83;;;17.60;65.40;;;;;;5034118;28;20453;-70
2021/04/20 14:34:51;;;;;;;23.23;21.47;;;17.30;68.30;;;;;;5034359;28;20448;-70
2021/04/20 14:37:19;;;;;;;20.80;19.43;;;17.20;70.50;;;;;;5033968;28;20808;-70
2021/04/20 14:39:50;;;;;;;22.33;20.63;;;16.90;72.50;;;;;;5034238;28;20455;-70
2021/04/20 14:42:17;;;;;;;21.60;19.90;;;16.70;72.70;;;;;;5034014;28;20474;-70
2021/04/20 14:44:45;;;;;;;23.43;21.53;;;16.80;74.70;;;;;;5033762;28;20711;-70
2021/04/20 14:47:15;;;;;;;22.37;20.77;;;16.70;73.80;;;;;;5033729;28;20464;-70
2021/04/20 14:49:44;;;;;;;21.80;20.27;;;16.70;75.30;;;;;;5033843;28;21056;-70
2021/04/20 14:52:13;;;;;;;22.23;20.33;;;16.60;76.50;;;;;;5033775;28;21010;-69
2021/04/20 14:54:44;;;;;;;21.43;19.80;;;16.70;75.40;;;;;;5033734;28;20445;-70
2021/04/20 14:57:11;;;;;;;22.10;20.30;;;16.70;75.50;;;;;;5033840;28;20453;-70
2021/04/20 14:59:39;;;;;;;22.17;20.33;;;16.60;75.20;;;;;;5033364;28;20449;-70
2021/04/20 15:02:07;;;;;;;22.87;21.00;;;16.50;76.60;;;;;;5034236;28;20457;-70
2021/04/20 15:04:37;;;;;;;23.17;21.57;;;16.50;76.60;;;;;;5033208;28;20963;-70
2021/04/20 15:07:10;;;;;;;21.87;20.27;;;16.60;76.20;;;;;;5033717;28;20468;-70
2021/04/20 15:09:38;;;;;;;21.97;20.37;;;16.70;75.80;;;;;;5033157;28;20495;-70